Terminal Aerodrome Forecast
Issued by NWS Goodland, KS

Home | Current Version | Previous Version | Text Only | Print | Product List | Glossary On
Versions: 1 2 3 4 5 6 7 8 9 10 11 12 13 14 15 16 17 18 19 20 21 22 23 24
000
FTUS43 KGLD 191923 AAA
TAFGLD
TAF AMD
KGLD 191923Z 1919/2018 10014G24KT 6SM -SHRA BR OVC015
      TEMPO 1919/1922 3SM -RA BR OVC009
     FM200000 07017G25KT 6SM -DZ OVC005
     FM200300 06012KT 4SM -DZ OVC005
     FM200700 03010KT 2SM -DZ OVC002
     FM201300 11010KT 5SM -DZ BR OVC010=

USA.gov is the U.S. government's official web portal to all federal, state and local government web resources and services.